Time;durP1;ratioP1;P1;durP2;ratioP2;P2;SDS_P1;SDS_P2;PMS_P1;PMS_P2;Temp;Humidity;BMP_temperature;BMP_pressure;BME280_temperature;BME280_humidity;BME280_pressure;Samples;Min_cycle;Max_cycle;Signal;HPM_P1;HPM_P2
2024/01/27 00:01:44;;;;;;;16.50;3.42;;;3.30;91.50;;;;;;5123776;27;20042;-86
2024/01/27 00:04:09;;;;;;;14.07;3.30;;;3.40;91.50;;;;;;5105168;27;20514;-86
2024/01/27 00:06:35;;;;;;;16.13;3.47;;;3.40;91.60;;;;;;5124999;27;20394;-88
2024/01/27 00:09:01;;;;;;;14.45;3.28;;;3.60;91.60;;;;;;5112440;28;20035;-88
2024/01/27 00:11:26;;;;;;;15.38;3.17;;;3.40;91.60;;;;;;5129091;27;20031;-88
2024/01/27 00:13:52;;;;;;;22.73;3.65;;;3.50;91.60;;;;;;5111510;27;20043;-88
2024/01/27 00:16:18;;;;;;;13.05;4.28;;;3.50;91.60;;;;;;5118722;27;20036;-88
2024/01/27 00:18:43;;;;;;;17.75;3.60;;;3.50;91.50;;;;;;5111974;27;20404;-88
2024/01/27 00:21:09;;;;;;;17.75;4.93;;;3.50;91.50;;;;;;5121897;27;20048;-81
2024/01/27 00:23:35;;;;;;;15.85;3.10;;;3.50;91.70;;;;;;5125694;27;20028;-81
2024/01/27 00:26:04;;;;;;;14.05;3.53;;;3.60;91.50;;;;;;5128089;27;20065;-81
2024/01/27 00:28:30;;;;;;;17.85;3.38;;;3.60;91.50;;;;;;5127561;27;20063;-81
2024/01/27 00:30:56;;;;;;;14.88;2.97;;;3.60;91.50;;;;;;5128034;27;20042;-81
2024/01/27 00:33:22;;;;;;;13.95;3.38;;;3.60;91.50;;;;;;5125406;27;20048;-81
2024/01/27 00:35:47;;;;;;;16.05;3.05;;;3.60;91.40;;;;;;5114552;27;20036;-81
2024/01/27 00:38:13;;;;;;;23.73;5.25;;;3.70;91.40;;;;;;5126447;27;20062;-81
2024/01/27 00:40:38;;;;;;;16.60;3.20;;;3.60;91.40;;;;;;5115196;27;20051;-82
2024/01/27 00:43:04;;;;;;;15.32;3.10;;;3.70;91.40;;;;;;5127120;27;20436;-82
2024/01/27 00:45:30;;;;;;;19.35;4.03;;;4.10;91.50;;;;;;5115401;27;20402;-82
2024/01/27 00:47:59;;;;;;;16.73;3.33;;;3.70;91.40;;;;;;5124833;27;20118;-81
2024/01/27 00:50:24;;;;;;;18.88;3.63;;;3.80;91.40;;;;;;5133415;27;20043;-81
2024/01/27 00:52:50;;;;;;;13.73;3.55;;;3.80;91.40;;;;;;5132626;27;20038;-81
2024/01/27 00:55:17;;;;;;;17.73;3.28;;;3.80;91.40;;;;;;5137041;27;20072;-81
2024/01/27 00:57:43;;;;;;;20.08;3.97;;;3.80;91.40;;;;;;5132116;27;20039;-81
2024/01/27 01:00:09;;;;;;;20.33;4.00;;;3.80;91.40;;;;;;5114334;27;20036;-81
2024/01/27 01:02:36;;;;;;;18.88;4.68;;;3.80;91.40;;;;;;5127727;27;20042;-81
2024/01/27 01:05:03;;;;;;;20.25;3.90;;;3.90;91.40;;;;;;5124046;27;20036;-81
2024/01/27 01:07:32;;;;;;;17.08;3.50;;;3.90;91.30;;;;;;5122328;27;20058;-81
2024/01/27 01:09:58;;;;;;;20.67;3.88;;;3.90;91.30;;;;;;5126246;27;20092;-81
2024/01/27 01:12:25;;;;;;;24.65;4.88;;;3.90;91.30;;;;;;5133775;27;20039;-81
2024/01/27 01:14:51;;;;;;;13.15;3.40;;;3.90;91.20;;;;;;5134007;27;20100;-81
2024/01/27 01:17:16;;;;;;;18.75;3.72;;;3.90;91.20;;;;;;5126936;27;20059;-81
2024/01/27 01:19:42;;;;;;;16.58;3.58;;;3.90;91.20;;;;;;5112394;27;20043;-81
2024/01/27 01:22:08;;;;;;;9.77;3.20;;;3.90;91.20;;;;;;5114694;27;20063;-81
2024/01/27 01:24:33;;;;;;;12.80;4.00;;;3.90;91.20;;;;;;5118088;28;20096;-81
2024/01/27 01:26:59;;;;;;;16.23;3.78;;;3.90;91.20;;;;;;5127725;27;20130;-86
2024/01/27 01:29:26;;;;;;;15.95;3.72;;;3.90;91.10;;;;;;5106480;28;20043;-85
2024/01/27 01:31:52;;;;;;;17.55;3.75;;;4.00;91.20;;;;;;5121527;27;20038;-86
2024/01/27 01:34:17;;;;;;;19.45;4.10;;;3.90;91.10;;;;;;5124008;27;20043;-87
2024/01/27 01:36:43;;;;;;;14.48;3.30;;;4.00;91.10;;;;;;5120339;27;20052;-87
2024/01/27 01:39:10;;;;;;;12.93;3.60;;;4.00;91.10;;;;;;5125456;27;20035;-88
2024/01/27 01:41:35;;;;;;;12.77;3.65;;;4.00;91.10;;;;;;5116160;27;20036;-88
2024/01/27 01:44:01;;;;;;;13.68;3.58;;;4.00;91.10;;;;;;5123207;27;20032;-87
2024/01/27 01:46:27;;;;;;;14.13;4.07;;;4.00;91.10;;;;;;5125615;27;20474;-87
2024/01/27 01:48:53;;;;;;;18.88;3.80;;;4.00;91.10;;;;;;5123616;27;20073;-88
2024/01/27 01:51:19;;;;;;;15.43;3.60;;;4.00;91.10;;;;;;5101056;27;20050;-88
2024/01/27 01:53:48;;;;;;;17.10;3.95;;;4.00;91.00;;;;;;5102163;27;20031;-86
2024/01/27 01:56:15;;;;;;;14.77;3.63;;;4.00;91.10;;;;;;5106573;27;20041;-86
2024/01/27 01:58:41;;;;;;;14.65;3.72;;;4.00;91.00;;;;;;5119909;27;20043;-87
2024/01/27 02:01:07;;;;;;;15.13;3.40;;;4.00;91.00;;;;;;5125750;27;20035;-88
2024/01/27 02:03:33;;;;;;;15.25;3.70;;;4.00;91.00;;;;;;5105430;28;20031;-87
2024/01/27 02:05:58;;;;;;;13.30;3.38;;;4.00;91.00;;;;;;5123667;27;20062;-87
2024/01/27 02:08:24;;;;;;;20.33;3.72;;;4.00;91.00;;;;;;5110057;27;20035;-87
2024/01/27 02:10:50;;;;;;;12.35;2.92;;;4.10;91.10;;;;;;5118765;27;20099;-87
2024/01/27 02:13:20;;;;;;;14.30;3.15;;;4.00;91.00;;;;;;5125335;27;20095;-87
2024/01/27 02:15:46;;;;;;;15.43;3.08;;;4.00;91.00;;;;;;5100689;27;20034;-87
2024/01/27 02:18:12;;;;;;;9.63;2.33;;;4.00;91.00;;;;;;5118470;27;20509;-87
2024/01/27 02:20:38;;;;;;;11.48;2.42;;;4.00;91.00;;;;;;5123272;27;20123;-87
2024/01/27 02:23:05;;;;;;;15.15;2.92;;;4.10;91.00;;;;;;5123265;27;20486;-87
2024/01/27 02:25:34;;;;;;;15.57;2.78;;;4.10;91.00;;;;;;5124535;27;20131;-87
2024/01/27 02:28:00;;;;;;;14.15;3.08;;;4.10;91.00;;;;;;5124964;27;20508;-87
2024/01/27 02:30:26;;;;;;;10.70;2.88;;;4.10;90.90;;;;;;5124025;27;20043;-87
2024/01/27 02:32:52;;;;;;;9.55;2.50;;;4.10;90.90;;;;;;5123262;27;20127;-86
2024/01/27 02:35:18;;;;;;;10.18;2.58;;;4.10;90.90;;;;;;5122143;27;20043;-86
2024/01/27 02:37:43;;;;;;;13.75;2.90;;;4.10;90.90;;;;;;5118068;27;20059;-88
2024/01/27 02:40:10;;;;;;;10.75;2.60;;;4.10;90.90;;;;;;5121298;27;20049;-88
2024/01/27 02:42:36;;;;;;;17.73;3.90;;;4.10;90.80;;;;;;5109557;27;20045;-87
2024/01/27 02:45:03;;;;;;;14.07;2.70;;;4.10;90.80;;;;;;5126867;27;20036;-87
2024/01/27 02:47:28;;;;;;;14.82;2.95;;;4.10;90.80;;;;;;5140989;27;20031;-87
2024/01/27 02:49:54;;;;;;;16.95;2.90;;;4.10;90.80;;;;;;5114766;28;20036;-87
2024/01/27 02:52:20;;;;;;;14.95;3.25;;;4.10;90.80;;;;;;5104484;28;20043;-87
2024/01/27 02:54:45;;;;;;;18.17;3.28;;;4.10;90.80;;;;;;5104383;27;20097;-87
2024/01/27 02:57:11;;;;;;;13.23;2.53;;;4.10;90.90;;;;;;5115182;27;20035;-86
2024/01/27 02:59:38;;;;;;;10.57;2.80;;;4.10;90.90;;;;;;5105635;28;20047;-87
2024/01/27 03:02:05;;;;;;;14.45;2.90;;;4.10;90.90;;;;;;5124303;27;20110;-86
2024/01/27 03:04:31;;;;;;;17.02;2.70;;;4.10;90.90;;;;;;5105168;27;20050;-86
2024/01/27 03:06:57;;;;;;;10.27;2.92;;;4.10;90.90;;;;;;5128256;27;20065;-86
2024/01/27 03:09:23;;;;;;;15.35;3.05;;;4.10;91.00;;;;;;5117938;27;20035;-87
2024/01/27 03:11:48;;;;;;;9.02;2.88;;;4.10;91.00;;;;;;5124722;27;20487;-88
2024/01/27 03:14:14;;;;;;;18.27;4.40;;;4.10;91.00;;;;;;5119596;27;20051;-88
2024/01/27 03:16:39;;;;;;;10.18;2.50;;;4.10;91.00;;;;;;5111682;28;20122;-86
2024/01/27 03:19:06;;;;;;;16.20;3.13;;;4.10;90.90;;;;;;5119886;27;20043;-86
2024/01/27 03:21:32;;;;;;;11.07;2.35;;;4.10;90.90;;;;;;5107106;27;20517;-86
2024/01/27 03:23:58;;;;;;;13.80;3.30;;;4.10;90.90;;;;;;5103465;28;20041;-86
2024/01/27 03:26:23;;;;;;;12.65;2.25;;;4.10;90.90;;;;;;5119273;27;20494;-86
2024/01/27 03:28:49;;;;;;;12.52;2.70;;;4.10;90.90;;;;;;5115814;27;20110;-86
2024/01/27 03:31:14;;;;;;;14.20;2.70;;;4.10;90.90;;;;;;5119385;27;20039;-87
2024/01/27 03:33:40;;;;;;;10.30;2.70;;;4.30;90.90;;;;;;5103671;28;20031;-87
2024/01/27 03:36:12;;;;;;;24.42;3.90;;;4.10;90.90;;;;;;5116393;28;20110;-87
2024/01/27 03:38:40;;;;;;;12.05;3.15;;;4.10;90.90;;;;;;5100281;28;20494;-86
2024/01/27 03:41:06;;;;;;;17.60;3.50;;;4.10;90.80;;;;;;5119814;27;20043;-86
2024/01/27 03:43:33;;;;;;;13.07;2.67;;;4.20;90.80;;;;;;5103843;28;20494;-89
2024/01/27 03:45:59;;;;;;;15.50;3.20;;;4.10;90.80;;;;;;5115938;28;20032;-88
2024/01/27 03:48:24;;;;;;;15.18;3.28;;;4.10;90.80;;;;;;5106054;27;20563;-87
2024/01/27 03:50:50;;;;;;;16.90;3.03;;;4.10;90.80;;;;;;5123028;28;20130;-86
2024/01/27 03:53:15;;;;;;;17.77;2.80;;;4.10;90.80;;;;;;5120883;28;20050;-87
2024/01/27 03:55:41;;;;;;;11.52;2.50;;;4.10;90.90;;;;;;5118060;28;20387;-87
2024/01/27 03:58:07;;;;;;;22.27;4.15;;;4.10;90.90;;;;;;5099991;28;20152;-85
2024/01/27 04:00:33;;;;;;;19.92;3.63;;;4.10;90.90;;;;;;5097954;28;20067;-86
2024/01/27 04:03:02;;;;;;;10.02;2.78;;;4.10;90.90;;;;;;5105682;28;20111;-87
2024/01/27 04:05:29;;;;;;;11.15;2.88;;;4.10;90.90;;;;;;5116780;28;20118;-85
2024/01/27 04:07:55;;;;;;;14.70;2.80;;;4.10;90.90;;;;;;5121001;28;20047;-85
2024/01/27 04:10:22;;;;;;;14.35;3.22;;;4.10;90.90;;;;;;5121160;28;20035;-86
2024/01/27 04:12:48;;;;;;;14.05;3.33;;;4.10;90.90;;;;;;5118663;28;20035;-87
2024/01/27 04:15:13;;;;;;;13.77;2.72;;;4.10;90.80;;;;;;5120113;28;20031;-85
2024/01/27 04:17:42;;;;;;;14.02;2.42;;;4.10;90.80;;;;;;5117770;28;20039;-85
2024/01/27 04:20:09;;;;;;;13.50;2.72;;;4.10;91.00;;;;;;5117435;28;20041;-85
2024/01/27 04:22:35;;;;;;;17.08;3.13;;;4.10;90.80;;;;;;5105014;28;20069;-85
2024/01/27 04:25:01;;;;;;;18.73;3.17;;;4.10;90.80;;;;;;5112300;28;20036;-85
2024/01/27 04:27:27;;;;;;;18.75;3.70;;;4.10;90.80;;;;;;5103611;28;20036;-86
2024/01/27 04:29:53;;;;;;;14.00;2.75;;;4.10;90.90;;;;;;5109096;28;20032;-86
2024/01/27 04:32:19;;;;;;;19.17;3.47;;;4.10;90.90;;;;;;5114914;28;20046;-86
2024/01/27 04:34:45;;;;;;;15.57;3.42;;;4.10;91.10;;;;;;5109572;28;20508;-86
2024/01/27 04:37:10;;;;;;;12.95;2.97;;;4.10;90.90;;;;;;5101251;28;20114;-86
2024/01/27 04:39:37;;;;;;;12.43;2.75;;;4.10;90.90;;;;;;5137136;27;20051;-86
2024/01/27 04:42:03;;;;;;;12.18;2.70;;;4.10;90.90;;;;;;5122866;28;20031;-89
2024/01/27 04:44:28;;;;;;;15.45;2.80;;;4.10;90.80;;;;;;5120027;27;20031;-89
2024/01/27 04:46:54;;;;;;;16.20;4.05;;;4.10;90.80;;;;;;5128197;27;20042;-88
2024/01/27 04:49:19;;;;;;;17.58;3.40;;;4.10;90.80;;;;;;5113901;27;20040;-86
2024/01/27 04:51:45;;;;;;;13.57;3.03;;;4.10;90.80;;;;;;5114564;27;20043;-87
2024/01/27 04:54:10;;;;;;;15.80;3.20;;;4.00;90.80;;;;;;5112856;27;20043;-87
2024/01/27 04:56:36;;;;;;;14.48;2.65;;;4.10;90.80;;;;;;5112344;27;20078;-87
2024/01/27 04:59:02;;;;;;;9.85;2.40;;;4.10;90.80;;;;;;5119124;27;20035;-87
2024/01/27 05:01:28;;;;;;;10.57;2.53;;;4.10;90.80;;;;;;5129605;27;20491;-86
2024/01/27 05:03:55;;;;;;;18.00;3.22;;;4.10;90.80;;;;;;5133837;27;20039;-86
2024/01/27 05:06:20;;;;;;;18.63;3.20;;;4.00;90.70;;;;;;5128626;27;20043;-86
2024/01/27 05:08:46;;;;;;;12.45;2.63;;;4.10;90.80;;;;;;5118699;27;20031;-87
2024/01/27 05:11:11;;;;;;;15.73;3.28;;;4.10;90.70;;;;;;5107303;27;20066;-89
2024/01/27 05:13:40;;;;;;;13.57;3.35;;;4.00;90.70;;;;;;5123183;27;20035;-88
2024/01/27 05:16:06;;;;;;;14.15;3.08;;;4.00;90.70;;;;;;5136578;27;20047;-88
2024/01/27 05:18:31;;;;;;;13.77;2.92;;;4.00;90.70;;;;;;5122496;27;20173;-88
2024/01/27 05:20:57;;;;;;;17.17;3.22;;;4.00;90.70;;;;;;5122900;27;20097;-88
2024/01/27 05:23:23;;;;;;;12.75;2.65;;;4.00;90.70;;;;;;5106827;27;20065;-88
2024/01/27 05:25:49;;;;;;;14.40;3.80;;;4.00;90.70;;;;;;5110652;27;20061;-87
2024/01/27 05:28:14;;;;;;;15.35;2.97;;;4.00;90.70;;;;;;5116772;27;20060;-87
2024/01/27 05:30:40;;;;;;;13.30;2.47;;;4.00;90.70;;;;;;5119442;27;20532;-87
2024/01/27 05:33:05;;;;;;;11.07;2.28;;;4.00;90.60;;;;;;5125813;27;20096;-88
2024/01/27 05:35:31;;;;;;;15.48;3.75;;;4.00;90.70;;;;;;5123049;27;20046;-88
2024/01/27 05:37:57;;;;;;;17.25;3.05;;;4.00;90.60;;;;;;5121917;27;20054;-88
2024/01/27 05:40:22;;;;;;;15.20;2.88;;;4.00;90.70;;;;;;5117994;27;20040;-88
2024/01/27 05:42:49;;;;;;;11.85;2.70;;;3.90;90.80;;;;;;5109736;27;20027;-88
2024/01/27 05:45:15;;;;;;;13.95;3.42;;;4.00;90.70;;;;;;5107984;27;20153;-87
2024/01/27 05:47:41;;;;;;;11.35;2.50;;;4.00;90.70;;;;;;5117652;27;20036;-88
2024/01/27 05:50:08;;;;;;;20.85;3.90;;;4.00;90.70;;;;;;5123094;27;20039;-88
2024/01/27 05:52:34;;;;;;;19.33;3.55;;;3.90;90.70;;;;;;5123599;27;20058;-87
2024/01/27 05:55:01;;;;;;;11.50;3.30;;;3.90;90.70;;;;;;5101418;27;20039;-88
2024/01/27 05:57:26;;;;;;;12.82;3.83;;;3.90;90.70;;;;;;5122839;27;20038;-88
2024/01/27 05:59:52;;;;;;;17.02;3.47;;;3.90;90.70;;;;;;5118095;27;20035;-86
2024/01/27 06:02:17;;;;;;;15.38;3.17;;;3.90;90.70;;;;;;5112967;28;20044;-86
2024/01/27 06:04:43;;;;;;;11.80;2.90;;;3.90;90.70;;;;;;5108212;27;20401;-86
2024/01/27 06:07:09;;;;;;;14.10;2.78;;;3.90;90.70;;;;;;5124940;27;20039;-86
2024/01/27 06:09:36;;;;;;;17.45;3.45;;;3.90;90.70;;;;;;5136984;27;20024;-86
2024/01/27 06:12:02;;;;;;;9.82;2.60;;;3.90;90.70;;;;;;5108491;27;20555;-86
2024/01/27 06:14:28;;;;;;;15.15;3.33;;;3.90;90.70;;;;;;5114988;27;20039;-86
2024/01/27 06:16:53;;;;;;;15.43;3.22;;;3.90;90.70;;;;;;5122260;27;20040;-86
2024/01/27 06:19:19;;;;;;;15.48;4.07;;;3.90;90.70;;;;;;5122480;27;20145;-85
2024/01/27 06:21:44;;;;;;;13.25;5.28;;;3.90;90.70;;;;;;5104338;27;20506;-86
2024/01/27 06:24:10;;;;;;;19.88;5.78;;;3.90;90.70;;;;;;5119469;27;20054;-86
2024/01/27 06:26:36;;;;;;;15.95;4.45;;;3.90;90.70;;;;;;5107994;27;20031;-87
2024/01/27 06:29:02;;;;;;;12.25;4.53;;;3.90;90.70;;;;;;5105021;28;20559;-87
2024/01/27 06:31:31;;;;;;;15.05;4.43;;;3.90;90.70;;;;;;5104651;28;20035;-86
2024/01/27 06:33:56;;;;;;;12.80;3.90;;;3.90;90.70;;;;;;5122178;27;20386;-86
2024/01/27 06:36:24;;;;;;;12.02;3.50;;;3.90;90.70;;;;;;5123260;27;20039;-87
2024/01/27 06:38:50;;;;;;;13.65;3.85;;;3.90;90.70;;;;;;5122417;27;20570;-87
2024/01/27 06:41:16;;;;;;;14.60;5.18;;;3.90;90.70;;;;;;5098963;27;20108;-87
2024/01/27 06:43:42;;;;;;;12.55;4.70;;;3.90;90.70;;;;;;5122350;27;20043;-86
2024/01/27 06:46:08;;;;;;;14.00;4.05;;;3.90;90.70;;;;;;5107802;27;20027;-86
2024/01/27 06:48:33;;;;;;;17.83;4.57;;;3.90;90.70;;;;;;5105650;28;20043;-86
2024/01/27 06:50:59;;;;;;;11.38;4.78;;;3.90;90.70;;;;;;5114839;27;20446;-86
2024/01/27 06:53:24;;;;;;;9.75;4.25;;;3.80;90.70;;;;;;5131364;27;20048;-87
2024/01/27 06:55:50;;;;;;;15.82;4.28;;;3.90;90.70;;;;;;5114369;28;20521;-87
2024/01/27 06:58:16;;;;;;;12.68;4.75;;;3.80;90.70;;;;;;5108574;27;20046;-87
2024/01/27 07:00:41;;;;;;;14.48;4.60;;;3.90;90.70;;;;;;5109831;27;20039;-87
2024/01/27 07:03:07;;;;;;;19.25;6.63;;;3.90;90.70;;;;;;5104976;27;20438;-86
2024/01/27 07:05:38;;;;;;;17.58;4.90;;;3.80;90.70;;;;;;5106895;27;20030;-85
2024/01/27 07:08:06;;;;;;;16.40;4.90;;;3.80;90.60;;;;;;5123574;27;20443;-85
2024/01/27 07:10:31;;;;;;;15.35;4.90;;;3.80;90.70;;;;;;5123664;27;20512;-85
2024/01/27 07:12:57;;;;;;;10.63;4.88;;;3.80;90.70;;;;;;5121780;27;20028;-85
2024/01/27 07:15:23;;;;;;;15.50;5.35;;;3.80;90.70;;;;;;5114359;28;20115;-87
2024/01/27 07:17:49;;;;;;;13.82;5.07;;;3.80;90.70;;;;;;5118094;28;20028;-86
2024/01/27 07:20:14;;;;;;;14.98;5.35;;;3.80;90.70;;;;;;5110966;28;20031;-87
2024/01/27 07:22:41;;;;;;;12.18;4.80;;;3.80;90.70;;;;;;5103542;28;20039;-87
2024/01/27 07:25:10;;;;;;;13.60;5.50;;;3.80;90.70;;;;;;5116869;27;20451;-87
2024/01/27 07:27:36;;;;;;;18.58;5.35;;;3.80;90.70;;;;;;5124106;27;20031;-86
2024/01/27 07:30:03;;;;;;;15.85;6.07;;;3.70;90.70;;;;;;5121051;27;20582;-86
2024/01/27 07:32:28;;;;;;;15.43;5.90;;;3.80;90.70;;;;;;5115473;27;20036;-87
2024/01/27 07:34:54;;;;;;;11.90;4.80;;;3.80;90.70;;;;;;5100126;28;20087;-87
2024/01/27 07:37:20;;;;;;;18.77;6.60;;;3.70;90.70;;;;;;5124063;28;20055;-85
2024/01/27 07:39:48;;;;;;;17.70;6.25;;;3.70;90.70;;;;;;5124147;27;20051;-87
2024/01/27 07:42:15;;;;;;;17.13;6.00;;;3.70;90.70;;;;;;5113468;28;20504;-88
2024/01/27 07:44:41;;;;;;;14.32;5.72;;;3.70;90.70;;;;;;5116963;28;20047;-88
2024/01/27 07:47:08;;;;;;;11.52;5.13;;;3.70;90.70;;;;;;5117127;28;20490;-86
2024/01/27 07:49:34;;;;;;;15.02;6.18;;;3.70;90.70;;;;;;5119151;28;20035;-86
2024/01/27 07:52:00;;;;;;;16.23;5.68;;;3.70;90.70;;;;;;5108753;28;20473;-86
2024/01/27 07:54:26;;;;;;;14.55;5.88;;;3.60;90.90;;;;;;5103365;28;20119;-89
2024/01/27 07:56:51;;;;;;;16.73;6.43;;;3.70;90.70;;;;;;5107802;28;20070;-88
2024/01/27 07:59:17;;;;;;;19.60;5.90;;;3.70;90.80;;;;;;5106110;28;20039;-87
2024/01/27 08:01:43;;;;;;;19.55;5.90;;;3.70;90.80;;;;;;5114072;28;20043;-87
2024/01/27 08:04:09;;;;;;;15.18;5.60;;;3.70;90.80;;;;;;5119843;27;20038;-87
2024/01/27 08:06:46;;;;;;;18.33;6.05;;;3.60;90.80;;;;;;5123922;27;20031;-87
2024/01/27 08:09:11;;;;;;;16.83;5.78;;;3.60;90.90;;;;;;5114805;28;20032;-87
2024/01/27 08:11:37;;;;;;;15.88;6.20;;;3.70;90.90;;;;;;5109022;28;20042;-87
2024/01/27 08:14:03;;;;;;;18.77;6.80;;;3.70;91.00;;;;;;5106716;28;20111;-87
2024/01/27 08:16:28;;;;;;;17.98;6.90;;;3.70;91.10;;;;;;5123245;27;20044;-89
2024/01/27 08:18:54;;;;;;;18.67;6.60;;;3.70;91.30;;;;;;5107147;27;20063;-89
2024/01/27 08:21:19;;;;;;;15.82;6.30;;;3.70;91.40;;;;;;5111402;27;20411;-88
2024/01/27 08:23:45;;;;;;;18.00;6.70;;;3.80;91.60;;;;;;5109855;27;20039;-88
2024/01/27 08:26:11;;;;;;;16.10;6.43;;;3.80;91.60;;;;;;5111150;27;20434;-87
2024/01/27 08:28:36;;;;;;;16.88;6.03;;;3.90;91.70;;;;;;5123093;27;20165;-87
2024/01/27 08:31:02;;;;;;;17.40;6.78;;;3.90;91.80;;;;;;5122976;27;20042;-88
2024/01/27 08:33:28;;;;;;;14.27;6.25;;;4.00;91.90;;;;;;5108770;27;20490;-88
2024/01/27 08:35:54;;;;;;;13.80;5.57;;;4.00;91.90;;;;;;5120456;27;20373;-88
2024/01/27 08:38:19;;;;;;;15.95;6.45;;;4.10;92.00;;;;;;5106254;28;20048;-88
2024/01/27 08:40:45;;;;;;;18.00;6.53;;;4.10;92.00;;;;;;5126129;27;20038;-89
2024/01/27 08:43:11;;;;;;;18.00;7.63;;;4.20;92.00;;;;;;5123226;27;20041;-88
2024/01/27 08:45:39;;;;;;;17.17;6.95;;;4.20;92.00;;;;;;5108417;27;20089;-88
2024/01/27 08:48:06;;;;;;;19.77;8.73;;;4.30;92.00;;;;;;5108609;27;20042;-87
2024/01/27 08:50:32;;;;;;;16.15;7.32;;;4.40;92.00;;;;;;5122445;27;20035;-87
2024/01/27 08:52:57;;;;;;;18.38;6.60;;;4.40;92.00;;;;;;5123673;27;20040;-89
2024/01/27 08:55:24;;;;;;;14.23;6.07;;;4.50;92.00;;;;;;5110427;27;20043;-89
2024/01/27 08:57:50;;;;;;;15.60;5.85;;;4.60;92.00;;;;;;5108975;27;20042;-88
2024/01/27 09:00:16;;;;;;;14.38;5.90;;;4.70;91.90;;;;;;5101241;27;20043;-88
2024/01/27 09:02:42;;;;;;;19.30;6.53;;;4.70;91.80;;;;;;5119041;27;20383;-88
2024/01/27 09:05:08;;;;;;;13.75;5.72;;;4.80;91.80;;;;;;5109338;27;20035;-89
2024/01/27 09:07:34;;;;;;;14.77;6.03;;;4.90;91.80;;;;;;5123636;27;20037;-89
2024/01/27 09:10:00;;;;;;;18.35;6.47;;;5.00;91.90;;;;;;5119036;27;20035;-88
2024/01/27 09:12:26;;;;;;;21.08;5.70;;;5.10;91.90;;;;;;5123531;27;20409;-89
2024/01/27 09:14:53;;;;;;;11.38;5.90;;;5.20;91.90;;;;;;5123069;27;20076;-89
2024/01/27 09:17:20;;;;;;;16.23;6.57;;;5.30;91.80;;;;;;5121278;27;20114;-89
2024/01/27 09:19:45;;;;;;;16.35;6.35;;;5.50;91.90;;;;;;5101488;27;20140;-88
2024/01/27 09:22:11;;;;;;;15.07;5.88;;;5.60;91.50;;;;;;5123144;27;20043;-86
2024/01/27 09:24:36;;;;;;;15.93;6.63;;;5.70;91.40;;;;;;5107940;28;20035;-86
2024/01/27 09:27:02;;;;;;;13.90;5.70;;;5.80;91.30;;;;;;5127693;27;20035;-86
2024/01/27 09:29:29;;;;;;;15.35;6.05;;;5.90;91.10;;;;;;5108851;27;20482;-86
2024/01/27 09:31:55;;;;;;;15.30;6.15;;;6.00;91.00;;;;;;5128765;27;20123;-87
2024/01/27 09:34:20;;;;;;;16.80;6.40;;;6.10;90.90;;;;;;5132602;27;20043;-87
2024/01/27 09:36:46;;;;;;;14.50;6.47;;;6.20;90.80;;;;;;5115949;27;20066;-88
2024/01/27 09:39:11;;;;;;;17.85;7.13;;;6.30;90.70;;;;;;5140468;27;20084;-88
2024/01/27 09:41:38;;;;;;;14.65;6.40;;;6.50;90.60;;;;;;5109493;27;20040;-87
2024/01/27 09:44:04;;;;;;;13.32;6.45;;;6.50;90.30;;;;;;5129167;27;20031;-86
2024/01/27 09:46:31;;;;;;;15.07;7.32;;;6.60;90.20;;;;;;5106710;27;20039;-87
2024/01/27 09:48:58;;;;;;;17.77;6.80;;;6.70;90.00;;;;;;5118065;27;20040;-86
2024/01/27 09:51:25;;;;;;;15.63;6.65;;;6.70;90.00;;;;;;5118196;27;20095;-87
2024/01/27 09:53:52;;;;;;;17.75;7.28;;;6.80;89.40;;;;;;5118405;27;20043;-86
2024/01/27 09:56:18;;;;;;;16.02;6.43;;;6.80;89.00;;;;;;5116776;27;20406;-86
2024/01/27 09:58:45;;;;;;;13.73;7.07;;;6.90;89.00;;;;;;5097325;28;20038;-87
2024/01/27 10:01:11;;;;;;;13.48;6.30;;;6.90;88.60;;;;;;5127889;27;20055;-88
2024/01/27 10:03:40;;;;;;;18.40;7.25;;;6.90;88.80;;;;;;5125535;27;20112;-88
2024/01/27 10:06:09;;;;;;;14.73;6.10;;;7.00;88.30;;;;;;5106555;27;20118;-88
2024/01/27 10:08:35;;;;;;;19.83;7.57;;;7.00;88.20;;;;;;5117496;27;20037;-88
2024/01/27 10:11:09;;;;;;;15.95;7.00;;;7.40;88.30;;;;;;5097392;27;20043;-88
2024/01/27 10:13:36;;;;;;;17.02;6.63;;;7.00;87.70;;;;;;5107021;27;20409;-88
2024/01/27 10:16:06;;;;;;;16.27;6.15;;;7.60;88.10;;;;;;5122967;27;20039;-88
2024/01/27 10:18:32;;;;;;;15.07;6.85;;;7.10;87.70;;;;;;5118784;27;20072;-88
2024/01/27 10:20:59;;;;;;;14.73;6.82;;;7.10;87.60;;;;;;5121282;27;20039;-88
2024/01/27 10:23:24;;;;;;;17.40;6.53;;;7.10;87.60;;;;;;5106334;27;20486;-87
2024/01/27 10:25:51;;;;;;;17.38;6.68;;;7.10;87.60;;;;;;5104885;27;20047;-87
2024/01/27 10:28:17;;;;;;;11.65;6.28;;;7.50;87.90;;;;;;5116351;27;20562;-87
2024/01/27 10:30:43;;;;;;;19.52;6.40;;;7.10;87.70;;;;;;5119486;27;20050;-88
2024/01/27 10:33:10;;;;;;;16.13;7.15;;;7.10;88.20;;;;;;5103520;27;20047;-88
2024/01/27 10:35:36;;;;;;;17.98;5.97;;;7.10;87.80;;;;;;5124933;27;20070;-88
2024/01/27 10:38:02;;;;;;;18.83;6.78;;;7.20;87.90;;;;;;5117043;27;20549;-88
2024/01/27 10:40:28;;;;;;;14.35;6.90;;;7.20;87.70;;;;;;5122039;27;20087;-88
2024/01/27 10:43:02;;;;;;;18.08;7.32;;;7.20;87.70;;;;;;5121681;27;20032;-88
2024/01/27 10:45:36;;;;;;;17.27;6.60;;;7.60;87.90;;;;;;5107709;27;20196;-87
2024/01/27 10:48:03;;;;;;;15.63;6.47;;;7.20;87.60;;;;;;5105438;28;20032;-87
2024/01/27 10:50:29;;;;;;;15.30;6.13;;;7.20;87.60;;;;;;5121697;27;20039;-88
2024/01/27 10:53:01;;;;;;;16.08;6.70;;;7.20;87.60;;;;;;5114792;27;20028;-89
2024/01/27 10:55:27;;;;;;;19.13;7.88;;;7.30;87.50;;;;;;5123036;27;20074;-88
2024/01/27 10:57:55;;;;;;;18.85;6.82;;;7.80;88.00;;;;;;5123367;27;20398;-88
2024/01/27 11:00:22;;;;;;;17.58;6.78;;;7.30;87.80;;;;;;5101298;27;20042;-89
2024/01/27 11:02:53;;;;;;;13.38;5.85;;;7.90;88.20;;;;;;5117647;27;20027;-88
2024/01/27 11:05:20;;;;;;;18.90;6.82;;;8.10;88.30;;;;;;5121964;27;20189;-88
2024/01/27 11:07:46;;;;;;;17.25;6.60;;;7.60;88.10;;;;;;5109185;27;20497;-88
2024/01/27 11:10:12;;;;;;;14.88;5.90;;;7.40;87.90;;;;;;5122626;27;20450;-87
2024/01/27 11:12:39;;;;;;;19.70;6.93;;;7.40;87.90;;;;;;5104849;27;20040;-88
2024/01/27 11:15:06;;;;;;;15.77;5.90;;;7.40;87.90;;;;;;5104324;27;20064;-88
2024/01/27 11:17:41;;;;;;;18.35;6.35;;;7.50;88.00;;;;;;5116519;27;20043;-89
2024/01/27 11:20:16;;;;;;;20.27;6.88;;;7.80;88.10;;;;;;5120823;27;20501;-88
2024/01/27 11:22:43;;;;;;;17.25;6.05;;;7.50;88.10;;;;;;5098922;28;20040;-89
2024/01/27 11:25:12;;;;;;;20.08;7.68;;;7.50;88.10;;;;;;5104414;27;20085;-89
2024/01/27 11:27:39;;;;;;;20.83;8.68;;;7.50;88.00;;;;;;5116143;27;20047;-88
2024/01/27 11:30:23;;;;;;;18.25;7.00;;;7.50;88.00;;;;;;5121005;27;20062;-88
2024/01/27 11:32:49;;;;;;;16.02;6.25;;;7.50;87.90;;;;;;5112277;27;20036;-88
2024/01/27 11:35:17;;;;;;;17.10;6.50;;;7.60;87.90;;;;;;5123805;28;20042;-88
2024/01/27 11:37:43;;;;;;;19.50;5.72;;;7.60;87.80;;;;;;5122163;27;20066;-88
2024/01/27 11:40:09;;;;;;;12.68;5.72;;;7.60;87.60;;;;;;5118834;27;20024;-88
2024/01/27 11:42:35;;;;;;;19.00;6.63;;;7.60;87.60;;;;;;5120719;27;20115;-88
2024/01/27 11:45:01;;;;;;;15.73;5.03;;;7.60;87.40;;;;;;5107373;28;20059;-87
2024/01/27 11:47:27;;;;;;;18.20;5.47;;;8.20;87.70;;;;;;5104487;28;20040;-87
2024/01/27 11:49:55;;;;;;;14.43;4.93;;;7.60;87.30;;;;;;5119131;27;20038;-88
2024/01/27 11:52:21;;;;;;;13.00;4.82;;;7.60;87.10;;;;;;5108911;27;20046;-87
2024/01/27 11:54:57;;;;;;;17.27;5.80;;;7.60;87.00;;;;;;5117157;27;20038;-87
2024/01/27 11:57:23;;;;;;;16.20;5.20;;;7.60;87.10;;;;;;5140278;27;20046;-87
2024/01/27 11:59:50;;;;;;;20.88;6.20;;;7.60;87.20;;;;;;5133154;27;20504;-88
2024/01/27 12:02:17;;;;;;;17.40;5.20;;;7.60;87.20;;;;;;5121704;27;20055;-88
2024/01/27 12:04:42;;;;;;;16.77;5.40;;;7.60;87.10;;;;;;5109403;27;20035;-88
2024/01/27 12:07:09;;;;;;;18.85;5.82;;;7.60;87.00;;;;;;5124557;27;20527;-89
2024/01/27 12:09:36;;;;;;;19.60;6.70;;;7.70;87.00;;;;;;5124590;27;20032;-88
2024/01/27 12:12:04;;;;;;;18.73;5.75;;;7.70;87.10;;;;;;5103522;28;20059;-88
2024/01/27 12:14:47;;;;;;;12.57;5.10;;;7.70;87.10;;;;;;5125023;27;20375;-88
2024/01/27 12:17:13;;;;;;;20.90;7.35;;;7.70;87.00;;;;;;5100305;27;20046;-88
2024/01/27 12:19:39;;;;;;;21.73;6.60;;;7.70;87.10;;;;;;5125913;27;20035;-88
2024/01/27 12:22:20;;;;;;;15.18;5.45;;;7.70;87.10;;;;;;5123969;27;20047;-88
2024/01/27 12:24:46;;;;;;;15.82;5.93;;;7.80;87.10;;;;;;5108892;28;20409;-88
2024/01/27 12:27:13;;;;;;;15.63;5.88;;;7.70;87.00;;;;;;5124234;27;20030;-88
2024/01/27 12:29:41;;;;;;;16.55;4.85;;;7.70;86.90;;;;;;5107261;28;20047;-88
2024/01/27 12:32:07;;;;;;;18.67;5.85;;;7.80;87.00;;;;;;5117373;27;20115;-89
2024/01/27 12:34:33;;;;;;;17.52;5.68;;;7.80;87.00;;;;;;5130808;27;20039;-89
2024/01/27 12:36:58;;;;;;;23.70;5.60;;;7.80;86.90;;;;;;5127633;27;20047;-89
2024/01/27 12:39:26;;;;;;;14.73;5.50;;;7.80;86.60;;;;;;5117614;27;20078;-89
2024/01/27 12:41:51;;;;;;;17.45;6.00;;;7.80;86.10;;;;;;5127350;27;20118;-88
2024/01/27 12:44:17;;;;;;;23.52;5.65;;;7.70;85.80;;;;;;5124128;27;20501;-89